createdAt,value
2018-07-06T00:00:16.600Z,0
2018-07-06T00:01:26.670Z,0
2018-07-06T00:02:36.733Z,0
2018-07-06T00:03:46.561Z,0
2018-07-06T00:04:56.374Z,0
2018-07-06T00:06:06.176Z,0
2018-07-06T00:07:16.003Z,0
2018-07-06T00:08:26.067Z,0
2018-07-06T00:09:35.877Z,0
2018-07-06T00:10:45.958Z,0
2018-07-06T00:11:56.031Z,0
2018-07-06T00:13:06.113Z,0
2018-07-06T00:14:16.212Z,0
2018-07-06T00:15:26.297Z,0
2018-07-06T00:16:36.415Z,0
2018-07-06T00:17:46.487Z,0
2018-07-06T00:18:56.341Z,0
2018-07-06T00:20:06.453Z,0
2018-07-06T00:21:16.511Z,0
2018-07-06T00:22:26.578Z,0
2018-07-06T00:23:36.698Z,0
2018-07-06T00:24:46.767Z,0
2018-07-06T00:25:56.892Z,0
2018-07-06T00:27:06.973Z,0
2018-07-06T00:28:16.785Z,0
2018-07-06T00:29:26.607Z,0
2018-07-06T00:30:36.399Z,0
2018-07-06T00:31:46.468Z,0
2018-07-06T00:32:56.545Z,0
2018-07-06T00:34:06.617Z,0
2018-07-06T00:35:16.156Z,0
2018-07-06T00:36:26.235Z,0
2018-07-06T00:37:36.325Z,0
2018-07-06T00:38:46.392Z,0
2018-07-06T00:39:56.465Z,0
2018-07-06T00:41:06.545Z,0
2018-07-06T00:42:16.355Z,0
2018-07-06T00:43:26.452Z,0
2018-07-06T00:44:36.539Z,0
2018-07-06T00:45:46.632Z,0
2018-07-06T00:46:56.439Z,0
2018-07-06T00:48:06.235Z,0
2018-07-06T00:49:16.031Z,0
2018-07-06T00:50:25.597Z,0
2018-07-06T00:51:35.460Z,0
2018-07-06T00:52:45.533Z,0
2018-07-06T00:53:55.600Z,0
2018-07-06T00:55:05.144Z,0
2018-07-06T00:56:15.200Z,0
2018-07-06T00:57:25.264Z,0
2018-07-06T00:58:35.332Z,0
2018-07-06T00:59:45.403Z,0
2018-07-06T01:00:55.481Z,0
2018-07-06T01:02:05.796Z,0
2018-07-06T01:03:15.777Z,0
2018-07-06T01:04:25.592Z,0
2018-07-06T01:05:35.661Z,0
2018-07-06T01:06:45.457Z,0
2018-07-06T01:07:55.267Z,0
2018-07-06T01:09:05.335Z,0
2018-07-06T01:10:15.674Z,0
2018-07-06T01:11:25.754Z,0
2018-07-06T01:12:35.557Z,0
2018-07-06T01:13:45.637Z,0
2018-07-06T01:14:55.452Z,0
2018-07-06T01:16:05.514Z,0
2018-07-06T01:17:15.344Z,0
2018-07-06T01:18:25.432Z,0
2018-07-06T01:19:35.503Z,0
2018-07-06T01:20:45.318Z,0
2018-07-06T01:21:55.130Z,0
2018-07-06T01:23:04.918Z,0
2018-07-06T01:24:14.993Z,0
2018-07-06T01:25:25.072Z,0
2018-07-06T01:26:34.875Z,0
2018-07-06T01:27:44.669Z,0
2018-07-06T01:28:54.749Z,0
2018-07-06T01:30:04.567Z,0
2018-07-06T01:31:14.400Z,0
2018-07-06T01:32:24.483Z,0
2018-07-06T01:33:34.284Z,0
2018-07-06T01:34:44.369Z,0
2018-07-06T01:35:54.457Z,0
2018-07-06T01:37:04.541Z,0
2018-07-06T01:38:14.655Z,0
2018-07-06T01:39:24.726Z,0
2018-07-06T01:40:34.539Z,0
2018-07-06T01:41:44.333Z,0
2018-07-06T01:42:54.402Z,0
2018-07-06T01:44:04.012Z,0
2018-07-06T01:45:14.095Z,0
2018-07-06T01:46:24.168Z,0
2018-07-06T01:47:33.986Z,0
2018-07-06T01:48:44.070Z,0
2018-07-06T01:49:53.929Z,0
2018-07-06T01:51:03.719Z,0
2018-07-06T01:52:13.794Z,0
2018-07-06T01:53:23.588Z,0
2018-07-06T01:54:33.402Z,0
2018-07-06T01:55:43.267Z,0
2018-07-06T01:56:53.347Z,0
2018-07-06T01:58:02.894Z,0
2018-07-06T01:59:12.975Z,0
2018-07-06T02:00:23.038Z,0
2018-07-06T02:01:33.091Z,0
2018-07-06T02:02:43.425Z,0
2018-07-06T02:03:53.512Z,0
2018-07-06T02:05:03.601Z,0
2018-07-06T02:06:13.417Z,0
2018-07-06T02:07:23.588Z,0
2018-07-06T02:08:33.664Z,0
2018-07-06T02:09:43.462Z,0
2018-07-06T02:10:53.553Z,0
2018-07-06T02:12:03.614Z,0
2018-07-06T02:13:13.723Z,0
2018-07-06T02:14:23.809Z,0
2018-07-06T02:15:33.876Z,0
2018-07-06T02:16:43.929Z,0
2018-07-06T02:17:53.995Z,0
2018-07-06T02:19:04.312Z,0
2018-07-06T02:20:14.115Z,0
2018-07-06T02:21:23.669Z,0
2018-07-06T02:22:33.745Z,0
2018-07-06T02:23:43.544Z,0
2018-07-06T02:24:53.359Z,0
2018-07-06T02:26:03.430Z,0
2018-07-06T02:27:13.517Z,0
2018-07-06T02:28:23.582Z,0
2018-07-06T02:29:33.666Z,0
2018-07-06T02:30:43.819Z,0
2018-07-06T02:31:53.889Z,0
2018-07-06T02:33:03.996Z,0
2018-07-06T02:34:13.824Z,0
2018-07-06T02:35:23.907Z,0
2018-07-06T02:36:33.987Z,0
2018-07-06T02:37:44.068Z,0
2018-07-06T02:38:53.870Z,0
2018-07-06T02:40:03.950Z,0
2018-07-06T02:41:13.763Z,0
2018-07-06T02:42:23.869Z,0
2018-07-06T02:43:33.949Z,0
2018-07-06T02:44:43.757Z,0
2018-07-06T02:45:53.841Z,0
2018-07-06T02:47:03.648Z,0
2018-07-06T02:48:13.823Z,0
2018-07-06T02:49:23.904Z,0
2018-07-06T02:50:33.989Z,0
2018-07-06T02:51:44.062Z,0
2018-07-06T02:52:54.146Z,0
2018-07-06T02:54:04.278Z,0
2018-07-06T02:55:14.344Z,0
2018-07-06T02:56:24.468Z,0
2018-07-06T02:57:34.551Z,0
2018-07-06T02:58:44.365Z,0
2018-07-06T02:59:54.484Z,0
2018-07-06T03:01:04.577Z,0
2018-07-06T03:02:14.647Z,0
2018-07-06T03:03:24.735Z,0
2018-07-06T03:36:00.531Z,10
2018-07-06T03:37:10.579Z,10
2018-07-06T03:38:20.134Z,10
2018-07-06T03:39:29.938Z,10
2018-07-06T03:40:39.788Z,10
2018-07-06T03:41:49.868Z,15
2018-07-06T03:42:59.939Z,15
2018-07-06T03:44:09.999Z,15
2018-07-06T03:45:20.079Z,15
2018-07-06T03:46:29.884Z,15
2018-07-06T03:47:39.749Z,20
2018-07-06T03:48:49.832Z,20
2018-07-06T03:49:59.896Z,20
2018-07-06T03:51:09.430Z,25
2018-07-06T03:52:19.501Z,25
2018-07-06T03:53:29.583Z,25
2018-07-06T03:54:39.406Z,30
2018-07-06T03:55:49.484Z,30
2018-07-06T03:56:59.560Z,30
2018-07-06T03:58:09.362Z,30
2018-07-06T03:59:19.451Z,30
2018-07-06T04:00:29.538Z,35
2018-07-06T04:01:39.636Z,35
2018-07-06T04:02:49.727Z,35
2018-07-06T04:03:59.805Z,35
2018-07-06T04:05:09.944Z,35
2018-07-06T04:06:20.015Z,35
2018-07-06T04:07:30.081Z,35
2018-07-06T04:08:40.166Z,40
2018-07-06T04:09:50.271Z,40
2018-07-06T04:11:00.347Z,40
2018-07-06T04:12:10.411Z,40
2018-07-06T04:13:20.488Z,40
2018-07-06T04:14:30.301Z,45
2018-07-06T04:15:40.367Z,45
2018-07-06T04:16:50.450Z,45
2018-07-06T04:18:00.008Z,45
2018-07-06T04:19:09.867Z,50
2018-07-06T04:20:19.951Z,50
2018-07-06T04:21:30.026Z,50
2018-07-06T04:22:39.596Z,55
2018-07-06T04:23:49.654Z,55
2018-07-06T04:24:59.732Z,55
2018-07-06T04:26:09.813Z,55
2018-07-06T04:27:19.893Z,60
2018-07-06T04:28:29.690Z,60
2018-07-06T04:29:39.753Z,60
2018-07-06T04:30:49.824Z,60
2018-07-06T04:31:59.898Z,60
2018-07-06T04:33:10.005Z,60
2018-07-06T04:34:20.080Z,60
2018-07-06T04:35:30.134Z,65
2018-07-06T04:36:40.242Z,65
2018-07-06T04:37:50.311Z,70
2018-07-06T04:39:00.368Z,70
2018-07-06T04:40:10.442Z,75
2018-07-06T04:41:20.541Z,75
2018-07-06T04:42:30.620Z,80
2018-07-06T04:43:40.436Z,80
2018-07-06T04:44:50.244Z,80
2018-07-06T04:45:59.801Z,90
2018-07-06T04:47:09.616Z,85
2018-07-06T04:48:19.676Z,90
2018-07-06T04:49:29.537Z,90
2018-07-06T04:50:39.613Z,95
2018-07-06T04:51:49.696Z,95
2018-07-06T04:52:59.526Z,95
2018-07-06T04:54:09.594Z,95
2018-07-06T04:55:19.685Z,100
2018-07-06T04:56:29.767Z,100
2018-07-06T04:57:39.875Z,105
2018-07-06T04:58:49.962Z,105
2018-07-06T05:00:00.513Z,105
2018-07-06T05:01:10.616Z,105
2018-07-06T05:02:20.694Z,110
2018-07-06T05:03:30.792Z,115
2018-07-06T05:04:40.876Z,115
2018-07-06T05:05:50.690Z,120
2018-07-06T05:07:00.756Z,120
2018-07-06T05:08:10.840Z,125
2018-07-06T05:09:20.910Z,130
2018-07-06T05:10:31.003Z,135
2018-07-06T05:11:41.072Z,140
2018-07-06T05:12:51.151Z,145
2018-07-06T05:14:01.250Z,150
2018-07-06T05:15:11.344Z,135
2018-07-06T05:16:21.168Z,135
2018-07-06T05:17:30.989Z,140
2018-07-06T05:18:40.796Z,140
2018-07-06T05:19:50.862Z,140
2018-07-06T05:21:00.677Z,145
2018-07-06T05:22:10.229Z,145
2018-07-06T05:23:20.311Z,150
2018-07-06T05:24:30.139Z,150
2018-07-06T05:25:40.217Z,150
2018-07-06T05:26:50.087Z,155
2018-07-06T05:27:59.889Z,155
2018-07-06T05:29:09.960Z,160
2018-07-06T05:30:20.044Z,165
2018-07-06T05:31:29.843Z,170
2018-07-06T05:32:39.961Z,170
2018-07-06T05:33:50.028Z,170
2018-07-06T05:34:59.585Z,175
2018-07-06T05:36:09.665Z,190
2018-07-06T05:37:19.741Z,205
2018-07-06T05:38:29.876Z,205
2018-07-06T05:39:39.956Z,220
2018-07-06T05:40:50.039Z,240
2018-07-06T05:42:00.121Z,250
2018-07-06T05:43:10.192Z,270
2018-07-06T05:44:20.267Z,285
2018-07-06T05:45:30.339Z,295
2018-07-06T05:46:40.171Z,295
2018-07-06T05:47:50.271Z,300
2018-07-06T05:49:00.357Z,290
2018-07-06T05:50:10.421Z,290
2018-07-06T05:51:20.485Z,280
2018-07-06T05:52:30.296Z,275
2018-07-06T05:53:40.381Z,275
2018-07-06T05:54:50.483Z,290
2018-07-06T05:56:00.559Z,275
2018-07-06T05:57:10.647Z,245
2018-07-06T05:58:20.734Z,225
2018-07-06T05:59:30.945Z,220
2018-07-06T06:00:40.768Z,230
2018-07-06T06:01:50.588Z,220
2018-07-06T06:03:00.672Z,225
2018-07-06T06:04:10.734Z,215
2018-07-06T06:05:20.851Z,215
2018-07-06T06:06:30.952Z,215
2018-07-06T06:07:40.780Z,215
2018-07-06T06:08:50.854Z,210
2018-07-06T06:10:00.691Z,195
2018-07-06T06:11:10.499Z,185
2018-07-06T06:12:20.775Z,175
2018-07-06T06:13:30.909Z,165
2018-07-06T06:14:41.001Z,160
2018-07-06T06:15:50.807Z,160
2018-07-06T06:17:00.623Z,160
2018-07-06T06:18:10.707Z,165
2018-07-06T06:19:20.513Z,165
2018-07-06T06:20:30.600Z,165
2018-07-06T06:21:40.681Z,180
2018-07-06T06:22:50.746Z,185
2018-07-06T06:24:00.825Z,190
2018-07-06T06:25:10.934Z,190
2018-07-06T06:26:21.022Z,230
2018-07-06T06:27:31.102Z,225
2018-07-06T06:28:41.194Z,200
2018-07-06T06:29:51.015Z,195
2018-07-06T06:31:01.179Z,195
2018-07-06T06:32:10.785Z,190
2018-07-06T06:33:21.653Z,195
2018-07-06T06:34:31.389Z,185
2018-07-06T06:35:41.461Z,185
2018-07-06T06:36:51.331Z,180
2018-07-06T06:38:01.429Z,180
2018-07-06T06:39:11.520Z,180
2018-07-06T06:40:21.349Z,185
2018-07-06T06:41:31.446Z,185
2018-07-06T06:42:41.520Z,185
2018-07-06T06:43:51.872Z,185
2018-07-06T06:45:01.980Z,180
2018-07-06T06:46:12.086Z,180
2018-07-06T06:47:22.283Z,180
2018-07-06T06:48:32.120Z,175
2018-07-06T06:49:42.200Z,180
2018-07-06T06:50:52.665Z,180
2018-07-06T06:52:02.761Z,180
2018-07-06T06:53:13.315Z,180
2018-07-06T06:54:23.425Z,180
2018-07-06T06:55:33.284Z,185
2018-07-06T06:56:43.105Z,190
2018-07-06T06:57:52.914Z,190
2018-07-06T06:59:02.586Z,195
2018-07-06T07:00:12.549Z,195
2018-07-06T07:01:22.634Z,200
2018-07-06T07:02:32.711Z,200
2018-07-06T07:03:42.814Z,200
2018-07-06T07:04:52.366Z,205
2018-07-06T07:06:02.191Z,205
2018-07-06T07:07:12.018Z,200
2018-07-06T07:08:22.101Z,200
2018-07-06T07:09:32.231Z,200
2018-07-06T07:10:42.327Z,195
2018-07-06T07:11:52.142Z,195
2018-07-06T07:13:02.241Z,190
2018-07-06T07:14:12.629Z,190
2018-07-06T07:15:22.766Z,190
2018-07-06T07:16:32.855Z,185
2018-07-06T07:17:42.953Z,185
2018-07-06T07:18:53.017Z,185
2018-07-06T07:20:03.115Z,180
2018-07-06T07:21:12.414Z,180
2018-07-06T07:22:22.220Z,180
2018-07-06T07:23:32.297Z,175
2018-07-06T07:24:42.164Z,175
2018-07-06T07:25:52.254Z,175
2018-07-06T07:27:01.547Z,175
2018-07-06T07:28:11.649Z,175
2018-07-06T07:29:21.769Z,175
2018-07-06T07:30:31.615Z,180
2018-07-06T07:31:41.746Z,185
2018-07-06T07:32:51.877Z,190
2018-07-06T07:34:01.950Z,200
2018-07-06T07:35:12.060Z,205
2018-07-06T07:36:21.889Z,210
2018-07-06T07:37:32.003Z,210
2018-07-06T07:38:41.814Z,210
2018-07-06T07:39:51.644Z,210
2018-07-06T07:41:01.736Z,205
2018-07-06T07:42:11.574Z,210
2018-07-06T07:43:21.450Z,210
2018-07-06T07:44:31.538Z,210
2018-07-06T07:45:41.645Z,215
2018-07-06T07:46:51.484Z,220
2018-07-06T07:48:01.308Z,220
2018-07-06T07:49:11.434Z,220
2018-07-06T07:50:21.256Z,225
2018-07-06T07:51:31.332Z,230
2018-07-06T07:52:41.467Z,230
2018-07-06T07:53:51.554Z,235
2018-07-06T07:55:01.694Z,240
2018-07-06T07:56:11.515Z,245
2018-07-06T07:57:21.714Z,255
2018-07-06T07:58:31.809Z,250
2018-07-06T07:59:41.910Z,255
2018-07-06T08:00:53.444Z,255
2018-07-06T08:02:03.616Z,255
2018-07-06T08:03:13.724Z,255
2018-07-06T08:04:23.829Z,255
2018-07-06T08:05:33.652Z,255
2018-07-06T08:06:44.114Z,255
2018-07-06T08:07:54.205Z,260
2018-07-06T08:09:04.534Z,260
2018-07-06T08:10:14.339Z,260
2018-07-06T08:11:24.441Z,260
2018-07-06T08:12:34.525Z,255
2018-07-06T08:13:44.613Z,250
2018-07-06T08:14:54.431Z,245
2018-07-06T08:16:04.512Z,240
2018-07-06T08:17:14.605Z,235
2018-07-06T08:18:24.612Z,230
2018-07-06T08:19:34.454Z,220
2018-07-06T08:20:44.549Z,210
2018-07-06T08:21:54.641Z,200
2018-07-06T08:23:04.668Z,200
2018-07-06T08:24:14.491Z,195
2018-07-06T08:25:24.586Z,195
2018-07-06T08:26:34.678Z,195
2018-07-06T08:27:44.775Z,195
2018-07-06T08:28:54.569Z,195
2018-07-06T08:30:04.645Z,195
2018-07-06T08:31:14.730Z,195
2018-07-06T08:32:24.297Z,190
2018-07-06T08:33:34.385Z,190
2018-07-06T08:34:44.762Z,195
2018-07-06T08:35:54.900Z,195
2018-07-06T08:37:04.990Z,200
2018-07-06T08:38:14.563Z,205
2018-07-06T08:39:24.644Z,215
2018-07-06T08:40:34.734Z,230
2018-07-06T08:41:44.816Z,240
2018-07-06T08:42:54.908Z,245
2018-07-06T08:44:04.735Z,255
2018-07-06T08:45:14.842Z,260
2018-07-06T08:46:24.927Z,260
2018-07-06T08:47:35.000Z,260
2018-07-06T08:48:45.076Z,260
2018-07-06T08:49:55.169Z,260
2018-07-06T08:51:05.285Z,250
2018-07-06T08:52:15.384Z,250
2018-07-06T08:53:25.277Z,245
2018-07-06T08:54:35.431Z,250
2018-07-06T08:55:45.533Z,250
2018-07-06T08:56:55.361Z,240
2018-07-06T08:58:05.486Z,235
2018-07-06T08:59:15.479Z,235
2018-07-06T09:00:25.324Z,230
2018-07-06T09:01:35.440Z,230
2018-07-06T09:02:45.583Z,230
2018-07-06T09:03:55.670Z,225
2018-07-06T09:05:05.502Z,225
2018-07-06T09:06:15.603Z,225
2018-07-06T09:07:25.688Z,220
2018-07-06T09:08:35.771Z,215
2018-07-06T09:09:45.993Z,215
2018-07-06T09:10:55.549Z,215
2018-07-06T09:12:05.642Z,215
2018-07-06T09:13:16.059Z,215
2018-07-06T09:14:26.005Z,215
2018-07-06T09:15:36.101Z,210
2018-07-06T09:16:46.014Z,210
2018-07-06T09:17:55.978Z,210
2018-07-06T09:19:06.050Z,210
2018-07-06T09:20:16.853Z,210
2018-07-06T09:21:27.089Z,210
2018-07-06T09:22:37.232Z,215
2018-07-06T09:23:47.064Z,215
2018-07-06T09:24:56.894Z,215
2018-07-06T09:26:09.898Z,215
2018-07-06T09:27:20.383Z,220
2018-07-06T09:28:30.727Z,210
2018-07-06T09:29:40.634Z,210
2018-07-06T09:30:50.709Z,205
2018-07-06T09:32:00.532Z,200
2018-07-06T09:33:10.719Z,195
2018-07-06T09:34:20.896Z,190
2018-07-06T09:35:30.726Z,190
2018-07-06T09:36:40.701Z,180
2018-07-06T09:37:50.783Z,180
2018-07-06T09:39:00.896Z,170
2018-07-06T09:40:11.048Z,160
2018-07-06T09:41:21.155Z,155
2018-07-06T09:42:31.240Z,150
2018-07-06T09:43:41.088Z,145
2018-07-06T09:44:51.214Z,145
2018-07-06T09:46:01.065Z,140
2018-07-06T09:47:11.165Z,135
2018-07-06T09:48:21.265Z,130
2018-07-06T09:49:31.352Z,130
2018-07-06T09:50:41.462Z,130
2018-07-06T09:51:51.301Z,125
2018-07-06T09:53:01.267Z,125
2018-07-06T09:54:11.364Z,125
2018-07-06T09:55:21.201Z,125
2018-07-06T09:56:30.767Z,125
2018-07-06T09:57:40.860Z,120
2018-07-06T09:58:50.681Z,120
2018-07-06T10:00:00.772Z,120
2018-07-06T10:01:10.595Z,115
2018-07-06T10:02:20.436Z,115
2018-07-06T10:03:30.533Z,115
2018-07-06T10:04:40.663Z,115
2018-07-06T10:05:51.147Z,115
2018-07-06T10:07:01.257Z,115
2018-07-06T10:08:11.356Z,120
2018-07-06T10:09:21.696Z,120
2018-07-06T10:10:31.809Z,120
2018-07-06T10:11:42.237Z,125
2018-07-06T10:12:52.328Z,130
2018-07-06T10:14:02.423Z,130
2018-07-06T10:15:12.546Z,130
2018-07-06T10:16:22.928Z,135
2018-07-06T10:17:33.024Z,140
2018-07-06T10:18:43.103Z,145
2018-07-06T10:19:53.056Z,145
2018-07-06T10:21:03.160Z,145
2018-07-06T10:22:13.257Z,145
2018-07-06T10:23:23.356Z,150
2018-07-06T10:24:33.462Z,150
2018-07-06T10:25:43.630Z,155
2018-07-06T10:26:53.747Z,150
2018-07-06T10:28:03.850Z,150
2018-07-06T10:29:13.683Z,150
2018-07-06T10:30:23.514Z,150
2018-07-06T10:31:33.657Z,150
2018-07-06T10:32:43.730Z,150
2018-07-06T10:33:54.117Z,150
2018-07-06T10:35:04.264Z,155
2018-07-06T10:36:14.127Z,155
2018-07-06T10:37:24.233Z,160
2018-07-06T10:38:34.083Z,160
2018-07-06T10:39:44.490Z,165
2018-07-06T10:40:54.660Z,170
2018-07-06T10:42:04.752Z,175
2018-07-06T10:43:14.826Z,180
2018-07-06T10:44:25.150Z,190
2018-07-06T10:45:34.977Z,185
2018-07-06T10:46:45.361Z,185
2018-07-06T10:47:55.541Z,185
2018-07-06T10:49:05.636Z,185
2018-07-06T10:50:15.494Z,185
2018-07-06T10:51:25.574Z,190
2018-07-06T10:52:35.661Z,195
2018-07-06T10:53:45.738Z,200
2018-07-06T10:54:55.840Z,205
2018-07-06T10:56:05.936Z,210
2018-07-06T10:57:15.768Z,215
2018-07-06T10:58:25.581Z,215
2018-07-06T10:59:36.063Z,220
2018-07-06T11:00:46.147Z,215
2018-07-06T11:01:56.011Z,215
2018-07-06T11:03:06.072Z,220
2018-07-06T11:04:16.165Z,225
2018-07-06T11:05:25.981Z,225
2018-07-06T11:06:36.085Z,225
2018-07-06T11:07:46.212Z,230
2018-07-06T11:08:56.510Z,235
2018-07-06T11:10:06.649Z,240
2018-07-06T11:11:16.486Z,245
2018-07-06T11:12:26.562Z,245
2018-07-06T11:13:36.662Z,250
2018-07-06T11:14:46.753Z,250
2018-07-06T11:15:56.832Z,250
2018-07-06T11:17:06.919Z,250
2018-07-06T11:18:16.738Z,250
2018-07-06T11:19:26.840Z,250
2018-07-06T11:20:36.944Z,240
2018-07-06T11:21:46.777Z,235
2018-07-06T11:22:56.875Z,240
2018-07-06T11:24:06.693Z,230
2018-07-06T11:25:16.901Z,225
2018-07-06T11:26:26.667Z,225
2018-07-06T11:27:36.783Z,220
2018-07-06T11:28:46.879Z,220
2018-07-06T11:29:56.951Z,215
2018-07-06T11:31:07.073Z,215
2018-07-06T11:32:17.502Z,215
2018-07-06T11:33:27.596Z,210
2018-07-06T11:34:37.707Z,210
2018-07-06T11:35:47.784Z,210
2018-07-06T11:36:57.956Z,210
2018-07-06T11:38:08.850Z,210
2018-07-06T11:39:18.833Z,215
2018-07-06T11:40:28.972Z,215
2018-07-06T11:41:39.072Z,215
2018-07-06T11:42:49.413Z,210
2018-07-06T11:43:59.527Z,215
2018-07-06T11:45:10.094Z,215
2018-07-06T11:46:20.229Z,215
2018-07-06T11:47:30.329Z,215
2018-07-06T11:48:40.431Z,215
2018-07-06T11:49:50.527Z,215
2018-07-06T11:51:00.631Z,215
2018-07-06T11:52:10.739Z,215
2018-07-06T11:53:20.847Z,215
2018-07-06T11:54:30.720Z,215
2018-07-06T11:55:40.826Z,215
2018-07-06T11:56:50.931Z,220
2018-07-06T11:58:01.055Z,220
2018-07-06T11:59:11.218Z,225
2018-07-06T12:00:21.340Z,230
2018-07-06T12:01:31.182Z,235
2018-07-06T12:02:41.282Z,240
2018-07-06T12:03:51.124Z,245
2018-07-06T12:05:00.679Z,240
2018-07-06T12:06:10.774Z,245
2018-07-06T12:07:20.885Z,250
2018-07-06T12:08:31.038Z,265
2018-07-06T12:09:41.128Z,270
2018-07-06T12:10:50.957Z,275
2018-07-06T12:12:01.078Z,270
2018-07-06T12:13:11.178Z,275
2018-07-06T12:14:21.377Z,285
2018-07-06T12:15:31.662Z,290
2018-07-06T12:16:41.768Z,295
2018-07-06T12:17:51.896Z,295
2018-07-06T12:19:01.991Z,300
2018-07-06T12:20:11.843Z,295
2018-07-06T12:21:22.514Z,290
2018-07-06T12:22:32.338Z,280
2018-07-06T12:23:42.439Z,285
2018-07-06T12:24:52.542Z,285
2018-07-06T12:26:02.632Z,290
2018-07-06T12:27:12.741Z,290
2018-07-06T12:28:22.860Z,310
2018-07-06T12:29:32.698Z,315
2018-07-06T12:30:42.805Z,320
2018-07-06T12:31:52.923Z,320
2018-07-06T12:33:03.004Z,320
2018-07-06T12:34:13.109Z,320
2018-07-06T12:35:23.229Z,325
2018-07-06T12:36:33.876Z,325
2018-07-06T12:37:44.041Z,325
2018-07-06T12:38:54.354Z,330
2018-07-06T12:40:04.199Z,330
2018-07-06T12:41:14.472Z,330
2018-07-06T12:42:24.615Z,340
2018-07-06T12:43:34.756Z,335
2018-07-06T12:44:44.867Z,335
2018-07-06T12:45:54.968Z,335
2018-07-06T12:47:05.052Z,335
2018-07-06T12:48:15.162Z,335
2018-07-06T12:49:25.241Z,340
2018-07-06T12:50:35.064Z,340
2018-07-06T12:51:45.175Z,340
2018-07-06T12:52:55.289Z,340
2018-07-06T12:54:05.357Z,345
2018-07-06T12:55:15.173Z,345
2018-07-06T12:56:25.269Z,345
2018-07-06T12:57:35.216Z,340
2018-07-06T12:58:45.787Z,340
2018-07-06T12:59:55.901Z,340
2018-07-06T13:01:05.788Z,345
2018-07-06T13:02:15.895Z,345
2018-07-06T13:03:25.982Z,345
2018-07-06T13:04:36.091Z,345
2018-07-06T13:05:46.179Z,340
2018-07-06T13:06:55.990Z,345
2018-07-06T13:08:05.806Z,345
2018-07-06T13:09:15.895Z,345
2018-07-06T13:10:26.218Z,345
2018-07-06T13:11:36.049Z,340
2018-07-06T13:12:46.167Z,340
2018-07-06T13:13:56.299Z,340
2018-07-06T13:15:06.398Z,330
2018-07-06T13:16:16.235Z,330
2018-07-06T13:17:26.078Z,330
2018-07-06T13:18:35.917Z,330
2018-07-06T13:19:46.086Z,325
2018-07-06T13:20:56.406Z,325
2018-07-06T13:22:06.798Z,325
2018-07-06T13:23:16.884Z,325
2018-07-06T13:24:26.997Z,325
2018-07-06T13:25:37.098Z,325
2018-07-06T13:26:47.184Z,330
2018-07-06T13:27:57.299Z,325
2018-07-06T13:29:07.400Z,325
2018-07-06T13:30:17.845Z,310
2018-07-06T13:31:27.948Z,320
2018-07-06T13:32:38.013Z,320
2018-07-06T13:33:48.525Z,320
2018-07-06T13:34:58.685Z,320
2018-07-06T13:36:08.800Z,315
2018-07-06T13:37:18.374Z,315
2018-07-06T13:38:28.213Z,315
2018-07-06T13:39:38.066Z,320
2018-07-06T13:40:48.153Z,315
2018-07-06T13:41:58.435Z,320
2018-07-06T13:43:07.726Z,320
2018-07-06T13:44:17.823Z,320
2018-07-06T13:45:27.910Z,320
2018-07-06T13:46:37.812Z,315
2018-07-06T13:47:47.958Z,310
2018-07-06T13:48:58.054Z,310
2018-07-06T13:50:08.138Z,310
2018-07-06T13:51:17.960Z,310
2018-07-06T13:52:28.045Z,310
2018-07-06T13:53:38.146Z,310
2018-07-06T13:54:48.218Z,305
2018-07-06T13:55:58.312Z,305
2018-07-06T13:57:08.144Z,310
2018-07-06T13:58:17.993Z,305
2018-07-06T13:59:28.914Z,300
2018-07-06T14:00:39.101Z,300
2018-07-06T14:01:48.949Z,300
2018-07-06T14:02:59.065Z,295
2018-07-06T14:04:09.193Z,295
2018-07-06T14:05:19.346Z,295
2018-07-06T14:06:29.180Z,290
2018-07-06T14:07:39.291Z,290
2018-07-06T14:08:49.412Z,290
2018-07-06T14:09:59.503Z,290
2018-07-06T14:11:09.066Z,290
2018-07-06T14:12:19.178Z,290
2018-07-06T14:13:29.263Z,290
2018-07-06T14:14:39.357Z,290
2018-07-06T14:15:49.475Z,290
2018-07-06T14:16:59.559Z,285
2018-07-06T14:18:09.651Z,285
2018-07-06T14:19:19.473Z,285
2018-07-06T14:20:29.274Z,285
2018-07-06T14:21:39.388Z,285
2018-07-06T14:22:49.753Z,285
2018-07-06T14:23:59.873Z,285
2018-07-06T14:25:09.441Z,285
2018-07-06T14:26:19.255Z,280
2018-07-06T14:27:29.334Z,285
2018-07-06T14:28:39.410Z,280
2018-07-06T14:29:49.488Z,285
2018-07-06T14:30:59.322Z,280
2018-07-06T14:32:09.159Z,280
2018-07-06T14:33:19.253Z,280
2018-07-06T14:34:29.332Z,280
2018-07-06T14:35:39.219Z,275
2018-07-06T14:36:49.295Z,275
2018-07-06T14:37:59.377Z,275
2018-07-06T14:39:09.478Z,270
2018-07-06T14:40:19.298Z,270
2018-07-06T14:41:29.142Z,270
2018-07-06T14:42:39.225Z,270
2018-07-06T14:43:49.321Z,270
2018-07-06T14:44:59.147Z,270
2018-07-06T14:46:09.296Z,265
2018-07-06T14:47:19.580Z,265
2018-07-06T14:48:29.142Z,265
2018-07-06T14:49:38.982Z,265
2018-07-06T14:50:49.082Z,265
2018-07-06T14:51:59.162Z,265
2018-07-06T14:53:08.987Z,265
2018-07-06T14:54:18.807Z,260
2018-07-06T14:55:28.378Z,260
2018-07-06T14:56:38.463Z,260
2018-07-06T14:57:48.337Z,265
2018-07-06T14:58:58.160Z,260
2018-07-06T15:00:08.255Z,260
2018-07-06T15:01:18.352Z,260
2018-07-06T15:02:28.437Z,265
2018-07-06T15:03:38.521Z,265
2018-07-06T15:04:48.607Z,265
2018-07-06T15:05:58.695Z,265
2018-07-06T15:07:08.797Z,265
2018-07-06T15:08:18.905Z,270
2018-07-06T15:09:29.184Z,270
2018-07-06T15:10:39.448Z,270
2018-07-06T15:11:49.556Z,270
2018-07-06T15:12:59.938Z,275
2018-07-06T15:14:10.040Z,275
2018-07-06T15:15:19.922Z,280
2018-07-06T15:16:29.991Z,280
2018-07-06T15:17:39.887Z,280
2018-07-06T15:18:49.977Z,280
2018-07-06T15:20:00.078Z,280
2018-07-06T15:21:10.155Z,285
2018-07-06T15:22:20.244Z,285
2018-07-06T15:23:30.344Z,285
2018-07-06T15:24:40.423Z,285
2018-07-06T15:25:50.492Z,290
2018-07-06T15:27:00.318Z,290
2018-07-06T15:28:10.386Z,290
2018-07-06T15:29:20.468Z,290
2018-07-06T15:30:30.584Z,300
2018-07-06T15:31:40.666Z,295
2018-07-06T15:32:50.799Z,290
2018-07-06T15:34:00.898Z,290
2018-07-06T15:35:11.011Z,285
2018-07-06T15:36:21.101Z,285
2018-07-06T15:37:30.929Z,270
2018-07-06T15:38:41.032Z,265
2018-07-06T15:39:50.876Z,255
2018-07-06T15:41:00.892Z,260
2018-07-06T15:42:10.980Z,245
2018-07-06T15:43:20.831Z,250
2018-07-06T15:44:30.950Z,240
2018-07-06T15:45:41.040Z,235
2018-07-06T15:46:51.142Z,215
2018-07-06T15:48:01.227Z,210
2018-07-06T15:49:11.347Z,205
2018-07-06T15:50:21.449Z,205
2018-07-06T15:51:31.296Z,200
2018-07-06T15:52:41.399Z,210
2018-07-06T15:53:51.478Z,190
2018-07-06T15:55:01.552Z,195
2018-07-06T15:56:11.630Z,180
2018-07-06T15:57:22.177Z,185
2018-07-06T15:58:32.262Z,180
2018-07-06T15:59:42.345Z,170
2018-07-06T16:00:52.434Z,165
2018-07-06T16:02:02.360Z,150
2018-07-06T16:03:12.469Z,145
2018-07-06T16:04:22.565Z,140
2018-07-06T16:05:32.406Z,135
2018-07-06T16:06:42.549Z,135
2018-07-06T16:07:52.429Z,135
2018-07-06T16:09:02.508Z,130
2018-07-06T16:10:12.583Z,130
2018-07-06T16:11:22.815Z,130
2018-07-06T16:12:32.664Z,130
2018-07-06T16:13:42.798Z,130
2018-07-06T16:14:52.894Z,135
2018-07-06T16:16:02.713Z,135
2018-07-06T16:17:12.783Z,135
2018-07-06T16:18:22.905Z,140
2018-07-06T16:19:32.917Z,140
2018-07-06T16:20:42.929Z,145
2018-07-06T16:21:52.772Z,140
2018-07-06T16:23:02.886Z,145
2018-07-06T16:24:12.978Z,145
2018-07-06T16:25:23.064Z,145
2018-07-06T16:26:32.890Z,155
2018-07-06T16:27:42.986Z,150
2018-07-06T16:28:53.100Z,150
2018-07-06T16:30:02.917Z,150
2018-07-06T16:31:13.000Z,150
2018-07-06T16:32:22.825Z,145
2018-07-06T16:33:32.654Z,135
2018-07-06T16:34:42.465Z,120
2018-07-06T16:35:52.554Z,115
2018-07-06T16:37:02.634Z,110
2018-07-06T16:38:12.862Z,105
2018-07-06T16:39:22.674Z,105
2018-07-06T16:40:32.768Z,100
2018-07-06T16:41:42.867Z,100
2018-07-06T16:42:52.990Z,100
2018-07-06T16:44:03.326Z,100
2018-07-06T16:45:13.433Z,95
2018-07-06T16:46:23.517Z,90
2018-07-06T16:47:33.593Z,80
2018-07-06T16:48:43.421Z,75
2018-07-06T16:49:53.220Z,70
2018-07-06T16:51:03.284Z,65